sensor_id;sensor_type;location;lat;lon;timestamp;P1;durP1;ratioP1;P2;durP2;ratioP2
82560;SDS011;72228;51.208;10.468;2023-10-13T00:03:59;10.73;;;4.88;;
82560;SDS011;72228;51.208;10.468;2023-10-13T00:06:31;12.20;;;5.88;;
82560;SDS011;72228;51.208;10.468;2023-10-13T00:08:57;8.75;;;5.50;;
82560;SDS011;72228;51.208;10.468;2023-10-13T00:11:23;9.38;;;5.90;;
82560;SDS011;72228;51.208;10.468;2023-10-13T00:13:52;15.95;;;5.50;;
82560;SDS011;72228;51.208;10.468;2023-10-13T00:16:20;10.50;;;5.55;;
82560;SDS011;72228;51.208;10.468;2023-10-13T00:18:48;13.55;;;5.85;;
82560;SDS011;72228;51.208;10.468;2023-10-13T00:21:16;12.13;;;5.45;;
82560;SDS011;72228;51.208;10.468;2023-10-13T00:23:45;14.82;;;5.85;;
82560;SDS011;72228;51.208;10.468;2023-10-13T00:26:19;10.20;;;5.68;;
82560;SDS011;72228;51.208;10.468;2023-10-13T00:31:42;10.02;;;5.07;;
82560;SDS011;72228;51.208;10.468;2023-10-13T00:34:09;9.38;;;5.75;;
82560;SDS011;72228;51.208;10.468;2023-10-13T00:36:45;10.02;;;5.47;;
82560;SDS011;72228;51.208;10.468;2023-10-13T00:39:15;10.48;;;5.57;;
82560;SDS011;72228;51.208;10.468;2023-10-13T00:41:45;13.63;;;5.85;;
82560;SDS011;72228;51.208;10.468;2023-10-13T00:44:18;12.65;;;7.07;;
82560;SDS011;72228;51.208;10.468;2023-10-13T00:47:04;11.50;;;6.07;;
82560;SDS011;72228;51.208;10.468;2023-10-13T00:49:33;9.75;;;5.47;;
82560;SDS011;72228;51.208;10.468;2023-10-13T00:52:07;10.75;;;5.85;;
82560;SDS011;72228;51.208;10.468;2023-10-13T00:54:36;10.57;;;6.20;;
82560;SDS011;72228;51.208;10.468;2023-10-13T00:57:03;12.05;;;6.43;;
82560;SDS011;72228;51.208;10.468;2023-10-13T01:02:19;10.75;;;6.10;;
82560;SDS011;72228;51.208;10.468;2023-10-13T01:05:00;13.82;;;5.97;;
82560;SDS011;72228;51.208;10.468;2023-10-13T01:07:28;15.32;;;7.15;;
82560;SDS011;72228;51.208;10.468;2023-10-13T01:09:54;13.93;;;6.78;;
82560;SDS011;72228;51.208;10.468;2023-10-13T01:12:21;10.70;;;6.20;;
82560;SDS011;72228;51.208;10.468;2023-10-13T01:14:50;16.73;;;6.25;;
82560;SDS011;72228;51.208;10.468;2023-10-13T01:17:17;15.45;;;6.30;;
82560;SDS011;72228;51.208;10.468;2023-10-13T01:19:43;11.77;;;6.32;;
82560;SDS011;72228;51.208;10.468;2023-10-13T01:22:11;12.40;;;6.35;;
82560;SDS011;72228;51.208;10.468;2023-10-13T01:24:37;11.00;;;6.45;;
82560;SDS011;72228;51.208;10.468;2023-10-13T01:27:06;18.65;;;6.72;;
82560;SDS011;72228;51.208;10.468;2023-10-13T01:29:46;14.25;;;6.72;;
82560;SDS011;72228;51.208;10.468;2023-10-13T01:32:24;11.45;;;6.45;;
82560;SDS011;72228;51.208;10.468;2023-10-13T01:34:51;13.10;;;6.45;;
82560;SDS011;72228;51.208;10.468;2023-10-13T01:37:22;12.80;;;6.40;;
82560;SDS011;72228;51.208;10.468;2023-10-13T01:39:48;12.65;;;6.25;;
82560;SDS011;72228;51.208;10.468;2023-10-13T01:42:15;10.98;;;5.78;;
82560;SDS011;72228;51.208;10.468;2023-10-13T01:44:48;9.55;;;6.10;;
82560;SDS011;72228;51.208;10.468;2023-10-13T01:47:15;15.63;;;6.10;;
82560;SDS011;72228;51.208;10.468;2023-10-13T01:49:42;11.60;;;6.68;;
82560;SDS011;72228;51.208;10.468;2023-10-13T01:52:12;12.15;;;6.57;;
82560;SDS011;72228;51.208;10.468;2023-10-13T01:54:42;11.05;;;6.07;;
82560;SDS011;72228;51.208;10.468;2023-10-13T01:57:12;11.93;;;6.88;;
82560;SDS011;72228;51.208;10.468;2023-10-13T01:59:48;10.80;;;6.65;;
82560;SDS011;72228;51.208;10.468;2023-10-13T02:02:15;10.43;;;6.63;;
82560;SDS011;72228;51.208;10.468;2023-10-13T02:04:45;8.85;;;5.93;;
82560;SDS011;72228;51.208;10.468;2023-10-13T02:07:26;15.73;;;7.25;;
82560;SDS011;72228;51.208;10.468;2023-10-13T02:09:55;10.80;;;6.55;;
82560;SDS011;72228;51.208;10.468;2023-10-13T02:12:22;11.60;;;5.90;;
82560;SDS011;72228;51.208;10.468;2023-10-13T02:15:06;16.42;;;6.32;;
82560;SDS011;72228;51.208;10.468;2023-10-13T02:17:32;10.48;;;5.88;;
82560;SDS011;72228;51.208;10.468;2023-10-13T02:20:21;14.93;;;7.45;;
82560;SDS011;72228;51.208;10.468;2023-10-13T02:22:56;18.75;;;7.05;;
82560;SDS011;72228;51.208;10.468;2023-10-13T02:25:22;12.13;;;7.15;;
82560;SDS011;72228;51.208;10.468;2023-10-13T02:28:06;12.23;;;7.25;;
82560;SDS011;72228;51.208;10.468;2023-10-13T02:30:41;10.45;;;6.20;;
82560;SDS011;72228;51.208;10.468;2023-10-13T02:33:13;15.23;;;6.20;;
82560;SDS011;72228;51.208;10.468;2023-10-13T02:35:39;11.32;;;6.63;;
82560;SDS011;72228;51.208;10.468;2023-10-13T02:38:16;11.70;;;5.88;;
82560;SDS011;72228;51.208;10.468;2023-10-13T02:40:51;13.20;;;6.45;;
82560;SDS011;72228;51.208;10.468;2023-10-13T02:43:20;9.73;;;5.72;;
82560;SDS011;72228;51.208;10.468;2023-10-13T02:45:51;13.15;;;7.45;;
82560;SDS011;72228;51.208;10.468;2023-10-13T02:48:27;11.85;;;6.07;;
82560;SDS011;72228;51.208;10.468;2023-10-13T02:51:05;12.27;;;6.55;;
82560;SDS011;72228;51.208;10.468;2023-10-13T02:53:41;14.70;;;6.60;;
82560;SDS011;72228;51.208;10.468;2023-10-13T02:56:12;12.27;;;6.82;;
82560;SDS011;72228;51.208;10.468;2023-10-13T02:58:39;15.60;;;6.55;;
82560;SDS011;72228;51.208;10.468;2023-10-13T03:01:11;12.73;;;6.57;;
82560;SDS011;72228;51.208;10.468;2023-10-13T03:03:47;12.60;;;7.68;;
82560;SDS011;72228;51.208;10.468;2023-10-13T03:06:24;13.88;;;7.28;;
82560;SDS011;72228;51.208;10.468;2023-10-13T03:09:03;15.55;;;7.00;;
82560;SDS011;72228;51.208;10.468;2023-10-13T03:11:59;10.70;;;6.18;;
82560;SDS011;72228;51.208;10.468;2023-10-13T03:14:25;11.82;;;6.78;;
82560;SDS011;72228;51.208;10.468;2023-10-13T03:16:58;12.63;;;6.97;;
82560;SDS011;72228;51.208;10.468;2023-10-13T03:19:30;15.73;;;6.95;;
82560;SDS011;72228;51.208;10.468;2023-10-13T03:22:03;11.88;;;6.72;;
82560;SDS011;72228;51.208;10.468;2023-10-13T03:24:34;15.30;;;6.50;;
82560;SDS011;72228;51.208;10.468;2023-10-13T03:27:00;11.57;;;6.68;;
82560;SDS011;72228;51.208;10.468;2023-10-13T03:29:35;14.90;;;7.28;;
82560;SDS011;72228;51.208;10.468;2023-10-13T03:32:04;10.45;;;6.88;;
82560;SDS011;72228;51.208;10.468;2023-10-13T03:34:40;15.35;;;6.50;;
82560;SDS011;72228;51.208;10.468;2023-10-13T03:37:27;16.73;;;7.80;;
82560;SDS011;72228;51.208;10.468;2023-10-13T03:42:47;20.17;;;8.15;;
82560;SDS011;72228;51.208;10.468;2023-10-13T03:45:37;13.88;;;7.88;;
82560;SDS011;72228;51.208;10.468;2023-10-13T03:48:07;16.00;;;7.53;;
82560;SDS011;72228;51.208;10.468;2023-10-13T03:50:54;11.55;;;7.18;;
82560;SDS011;72228;51.208;10.468;2023-10-13T03:53:37;13.65;;;8.13;;
82560;SDS011;72228;51.208;10.468;2023-10-13T03:56:26;14.23;;;7.43;;
82560;SDS011;72228;51.208;10.468;2023-10-13T03:58:56;16.08;;;7.35;;
82560;SDS011;72228;51.208;10.468;2023-10-13T04:01:27;15.00;;;7.05;;
82560;SDS011;72228;51.208;10.468;2023-10-13T04:04:09;12.75;;;7.45;;
82560;SDS011;72228;51.208;10.468;2023-10-13T04:06:41;13.45;;;7.18;;
82560;SDS011;72228;51.208;10.468;2023-10-13T04:09:15;10.45;;;7.18;;
82560;SDS011;72228;51.208;10.468;2023-10-13T04:11:57;14.88;;;7.38;;
82560;SDS011;72228;51.208;10.468;2023-10-13T04:14:30;11.75;;;6.60;;
82560;SDS011;72228;51.208;10.468;2023-10-13T04:17:17;12.45;;;7.03;;
82560;SDS011;72228;51.208;10.468;2023-10-13T04:19:54;13.27;;;7.03;;
82560;SDS011;72228;51.208;10.468;2023-10-13T04:22:36;13.18;;;6.20;;
82560;SDS011;72228;51.208;10.468;2023-10-13T04:25:18;9.98;;;6.30;;
82560;SDS011;72228;51.208;10.468;2023-10-13T04:28:08;11.77;;;6.25;;
82560;SDS011;72228;51.208;10.468;2023-10-13T04:30:40;11.65;;;6.60;;
82560;SDS011;72228;51.208;10.468;2023-10-13T04:33:25;11.13;;;6.53;;
82560;SDS011;72228;51.208;10.468;2023-10-13T04:36:12;15.20;;;7.10;;
82560;SDS011;72228;51.208;10.468;2023-10-13T04:38:45;10.15;;;6.20;;
82560;SDS011;72228;51.208;10.468;2023-10-13T04:44:23;10.80;;;6.18;;
82560;SDS011;72228;51.208;10.468;2023-10-13T04:46:58;11.80;;;5.78;;
82560;SDS011;72228;51.208;10.468;2023-10-13T04:49:26;17.55;;;6.00;;
82560;SDS011;72228;51.208;10.468;2023-10-13T04:52:04;15.80;;;6.15;;
82560;SDS011;72228;51.208;10.468;2023-10-13T04:54:35;15.43;;;6.20;;
82560;SDS011;72228;51.208;10.468;2023-10-13T04:57:15;17.55;;;6.20;;
82560;SDS011;72228;51.208;10.468;2023-10-13T04:59:59;10.73;;;5.65;;
82560;SDS011;72228;51.208;10.468;2023-10-13T05:02:39;12.27;;;6.05;;
82560;SDS011;72228;51.208;10.468;2023-10-13T05:05:11;10.38;;;6.20;;
82560;SDS011;72228;51.208;10.468;2023-10-13T05:07:50;8.13;;;5.47;;
82560;SDS011;72228;51.208;10.468;2023-10-13T05:10:35;12.40;;;5.93;;
82560;SDS011;72228;51.208;10.468;2023-10-13T05:13:22;13.95;;;6.65;;
82560;SDS011;72228;51.208;10.468;2023-10-13T05:16:06;11.73;;;6.03;;
82560;SDS011;72228;51.208;10.468;2023-10-13T05:18:52;10.30;;;5.40;;
82560;SDS011;72228;51.208;10.468;2023-10-13T05:21:36;13.52;;;6.22;;
82560;SDS011;72228;51.208;10.468;2023-10-13T05:24:22;7.22;;;4.53;;
82560;SDS011;72228;51.208;10.468;2023-10-13T05:27:07;7.88;;;5.10;;
82560;SDS011;72228;51.208;10.468;2023-10-13T05:29:53;8.80;;;5.35;;
82560;SDS011;72228;51.208;10.468;2023-10-13T05:32:39;11.50;;;5.38;;
82560;SDS011;72228;51.208;10.468;2023-10-13T05:35:26;8.15;;;5.60;;
82560;SDS011;72228;51.208;10.468;2023-10-13T05:38:11;9.77;;;5.22;;
82560;SDS011;72228;51.208;10.468;2023-10-13T05:43:45;8.05;;;4.60;;
82560;SDS011;72228;51.208;10.468;2023-10-13T05:46:33;12.93;;;5.70;;
82560;SDS011;72228;51.208;10.468;2023-10-13T05:49:05;7.57;;;4.97;;
82560;SDS011;72228;51.208;10.468;2023-10-13T05:51:40;8.43;;;5.47;;
82560;SDS011;72228;51.208;10.468;2023-10-13T05:54:34;10.35;;;4.80;;
82560;SDS011;72228;51.208;10.468;2023-10-13T05:57:28;7.63;;;5.25;;
82560;SDS011;72228;51.208;10.468;2023-10-13T06:00:16;9.05;;;6.30;;
82560;SDS011;72228;51.208;10.468;2023-10-13T06:03:03;10.73;;;5.65;;
82560;SDS011;72228;51.208;10.468;2023-10-13T06:05:55;16.23;;;6.35;;
82560;SDS011;72228;51.208;10.468;2023-10-13T06:08:43;12.32;;;6.18;;
82560;SDS011;72228;51.208;10.468;2023-10-13T06:11:30;8.98;;;5.63;;
82560;SDS011;72228;51.208;10.468;2023-10-13T06:14:21;9.80;;;5.43;;
82560;SDS011;72228;51.208;10.468;2023-10-13T06:17:12;7.93;;;5.35;;
82560;SDS011;72228;51.208;10.468;2023-10-13T06:19:59;12.27;;;5.88;;
82560;SDS011;72228;51.208;10.468;2023-10-13T06:22:57;9.15;;;5.68;;
82560;SDS011;72228;51.208;10.468;2023-10-13T06:25:55;11.02;;;5.38;;
82560;SDS011;72228;51.208;10.468;2023-10-13T06:28:49;8.82;;;5.13;;
82560;SDS011;72228;51.208;10.468;2023-10-13T06:31:21;16.70;;;6.22;;
82560;SDS011;72228;51.208;10.468;2023-10-13T06:33:59;8.80;;;5.68;;
82560;SDS011;72228;51.208;10.468;2023-10-13T06:36:29;8.50;;;5.45;;
82560;SDS011;72228;51.208;10.468;2023-10-13T06:39:02;9.88;;;5.50;;
82560;SDS011;72228;51.208;10.468;2023-10-13T06:42:06;8.93;;;5.53;;
82560;SDS011;72228;51.208;10.468;2023-10-13T06:44:43;11.75;;;5.20;;
82560;SDS011;72228;51.208;10.468;2023-10-13T06:47:14;11.15;;;4.93;;
82560;SDS011;72228;51.208;10.468;2023-10-13T06:52:23;10.77;;;5.07;;
82560;SDS011;72228;51.208;10.468;2023-10-13T06:54:59;9.13;;;5.10;;
82560;SDS011;72228;51.208;10.468;2023-10-13T06:57:39;8.75;;;4.65;;
82560;SDS011;72228;51.208;10.468;2023-10-13T07:00:13;7.75;;;4.63;;
82560;SDS011;72228;51.208;10.468;2023-10-13T07:03:10;10.60;;;4.78;;
82560;SDS011;72228;51.208;10.468;2023-10-13T07:05:48;8.02;;;5.35;;
82560;SDS011;72228;51.208;10.468;2023-10-13T07:08:16;8.77;;;5.57;;
82560;SDS011;72228;51.208;10.468;2023-10-13T07:10:50;11.27;;;5.82;;
82560;SDS011;72228;51.208;10.468;2023-10-13T07:13:40;9.85;;;5.97;;
82560;SDS011;72228;51.208;10.468;2023-10-13T07:16:25;10.68;;;5.30;;
82560;SDS011;72228;51.208;10.468;2023-10-13T07:19:10;12.90;;;4.80;;
82560;SDS011;72228;51.208;10.468;2023-10-13T07:21:48;8.75;;;4.70;;
82560;SDS011;72228;51.208;10.468;2023-10-13T07:24:32;9.35;;;5.95;;
82560;SDS011;72228;51.208;10.468;2023-10-13T07:27:29;7.30;;;4.78;;
82560;SDS011;72228;51.208;10.468;2023-10-13T07:30:28;9.02;;;5.07;;
82560;SDS011;72228;51.208;10.468;2023-10-13T07:33:41;16.13;;;6.50;;
82560;SDS011;72228;51.208;10.468;2023-10-13T07:36:51;10.80;;;5.40;;
82560;SDS011;72228;51.208;10.468;2023-10-13T07:39:57;10.88;;;5.75;;
82560;SDS011;72228;51.208;10.468;2023-10-13T07:43:32;10.20;;;5.68;;
82560;SDS011;72228;51.208;10.468;2023-10-13T07:46:29;12.40;;;5.85;;
82560;SDS011;72228;51.208;10.468;2023-10-13T07:49:14;7.40;;;4.53;;
82560;SDS011;72228;51.208;10.468;2023-10-13T07:51:58;7.40;;;4.78;;
82560;SDS011;72228;51.208;10.468;2023-10-13T07:54:57;12.57;;;5.13;;
82560;SDS011;72228;51.208;10.468;2023-10-13T07:58:07;11.20;;;5.53;;
82560;SDS011;72228;51.208;10.468;2023-10-13T08:00:51;11.05;;;4.97;;
82560;SDS011;72228;51.208;10.468;2023-10-13T08:04:14;9.20;;;5.38;;
82560;SDS011;72228;51.208;10.468;2023-10-13T08:07:18;10.38;;;5.15;;
82560;SDS011;72228;51.208;10.468;2023-10-13T08:10:37;11.13;;;4.70;;
82560;SDS011;72228;51.208;10.468;2023-10-13T08:13:22;12.95;;;5.55;;
82560;SDS011;72228;51.208;10.468;2023-10-13T08:16:00;11.30;;;4.65;;
82560;SDS011;72228;51.208;10.468;2023-10-13T08:18:41;10.27;;;4.53;;
82560;SDS011;72228;51.208;10.468;2023-10-13T08:21:20;10.55;;;4.25;;
82560;SDS011;72228;51.208;10.468;2023-10-13T08:24:03;6.75;;;3.95;;
82560;SDS011;72228;51.208;10.468;2023-10-13T08:26:41;7.45;;;4.50;;
82560;SDS011;72228;51.208;10.468;2023-10-13T08:29:42;10.05;;;5.10;;
82560;SDS011;72228;51.208;10.468;2023-10-13T08:32:36;13.73;;;4.75;;
82560;SDS011;72228;51.208;10.468;2023-10-13T08:35:23;8.98;;;4.30;;
82560;SDS011;72228;51.208;10.468;2023-10-13T08:38:18;12.77;;;4.82;;
82560;SDS011;72228;51.208;10.468;2023-10-13T08:41:06;7.32;;;4.95;;
82560;SDS011;72228;51.208;10.468;2023-10-13T08:44:04;12.18;;;5.00;;
82560;SDS011;72228;51.208;10.468;2023-10-13T08:47:06;13.25;;;4.70;;
82560;SDS011;72228;51.208;10.468;2023-10-13T08:50:22;9.90;;;4.93;;
82560;SDS011;72228;51.208;10.468;2023-10-13T08:53:21;11.43;;;5.22;;
82560;SDS011;72228;51.208;10.468;2023-10-13T08:56:25;9.52;;;4.80;;
82560;SDS011;72228;51.208;10.468;2023-10-13T08:59:19;12.35;;;5.03;;
82560;SDS011;72228;51.208;10.468;2023-10-13T09:02:46;6.97;;;4.80;;
82560;SDS011;72228;51.208;10.468;2023-10-13T09:06:14;11.48;;;5.47;;
82560;SDS011;72228;51.208;10.468;2023-10-13T09:09:13;9.13;;;4.03;;
82560;SDS011;72228;51.208;10.468;2023-10-13T09:12:29;7.95;;;4.57;;
82560;SDS011;72228;51.208;10.468;2023-10-13T09:15:58;9.93;;;4.28;;
82560;SDS011;72228;51.208;10.468;2023-10-13T09:23:15;10.02;;;4.57;;
82560;SDS011;72228;51.208;10.468;2023-10-13T09:26:12;12.90;;;3.95;;
82560;SDS011;72228;51.208;10.468;2023-10-13T09:29:18;9.50;;;3.97;;
82560;SDS011;72228;51.208;10.468;2023-10-13T09:32:19;9.15;;;4.00;;
82560;SDS011;72228;51.208;10.468;2023-10-13T09:35:38;12.10;;;4.18;;
82560;SDS011;72228;51.208;10.468;2023-10-13T09:43:04;12.05;;;5.20;;
82560;SDS011;72228;51.208;10.468;2023-10-13T09:46:05;7.45;;;3.83;;
82560;SDS011;72228;51.208;10.468;2023-10-13T09:49:14;14.73;;;4.28;;
82560;SDS011;72228;51.208;10.468;2023-10-13T09:52:42;10.55;;;4.18;;
82560;SDS011;72228;51.208;10.468;2023-10-13T09:56:15;10.43;;;4.88;;
82560;SDS011;72228;51.208;10.468;2023-10-13T09:59:59;14.38;;;4.82;;
82560;SDS011;72228;51.208;10.468;2023-10-13T10:03:52;14.10;;;4.30;;
82560;SDS011;72228;51.208;10.468;2023-10-13T10:07:39;12.85;;;4.97;;
82560;SDS011;72228;51.208;10.468;2023-10-13T10:14:13;11.10;;;3.70;;
82560;SDS011;72228;51.208;10.468;2023-10-13T10:17:47;8.70;;;4.30;;
82560;SDS011;72228;51.208;10.468;2023-10-13T10:21:43;6.78;;;3.55;;
82560;SDS011;72228;51.208;10.468;2023-10-13T10:25:32;15.15;;;4.43;;
82560;SDS011;72228;51.208;10.468;2023-10-13T10:28:22;15.27;;;4.05;;
82560;SDS011;72228;51.208;10.468;2023-10-13T10:32:16;12.85;;;3.60;;
82560;SDS011;72228;51.208;10.468;2023-10-13T10:35:32;7.68;;;3.10;;
82560;SDS011;72228;51.208;10.468;2023-10-13T10:42:12;8.48;;;3.42;;
82560;SDS011;72228;51.208;10.468;2023-10-13T10:45:18;8.20;;;3.53;;
82560;SDS011;72228;51.208;10.468;2023-10-13T10:48:08;10.40;;;3.58;;
82560;SDS011;72228;51.208;10.468;2023-10-13T10:51:23;9.15;;;3.47;;
82560;SDS011;72228;51.208;10.468;2023-10-13T10:54:40;7.25;;;3.70;;
82560;SDS011;72228;51.208;10.468;2023-10-13T10:57:38;13.35;;;3.90;;
82560;SDS011;72228;51.208;10.468;2023-10-13T11:01:11;12.25;;;3.33;;
82560;SDS011;72228;51.208;10.468;2023-10-13T11:05:00;11.15;;;4.45;;
82560;SDS011;72228;51.208;10.468;2023-10-13T11:11:42;11.70;;;4.18;;
82560;SDS011;72228;51.208;10.468;2023-10-13T11:15:40;6.63;;;3.67;;
82560;SDS011;72228;51.208;10.468;2023-10-13T11:19:03;11.57;;;4.30;;
82560;SDS011;72228;51.208;10.468;2023-10-13T11:23:31;7.20;;;4.05;;
82560;SDS011;72228;51.208;10.468;2023-10-13T11:27:33;12.85;;;4.15;;
82560;SDS011;72228;51.208;10.468;2023-10-13T11:31:37;9.70;;;3.65;;
82560;SDS011;72228;51.208;10.468;2023-10-13T11:44:35;14.15;;;4.80;;
82560;SDS011;72228;51.208;10.468;2023-10-13T11:48:23;7.63;;;4.03;;
82560;SDS011;72228;51.208;10.468;2023-10-13T11:51:50;10.52;;;4.97;;
82560;SDS011;72228;51.208;10.468;2023-10-13T11:55:20;7.63;;;4.07;;
82560;SDS011;72228;51.208;10.468;2023-10-13T11:58:20;10.73;;;4.63;;
82560;SDS011;72228;51.208;10.468;2023-10-13T12:02:19;9.23;;;3.67;;
82560;SDS011;72228;51.208;10.468;2023-10-13T12:05:35;8.57;;;4.15;;
82560;SDS011;72228;51.208;10.468;2023-10-13T12:09:23;14.00;;;5.90;;
82560;SDS011;72228;51.208;10.468;2023-10-13T12:16:46;8.88;;;4.40;;
82560;SDS011;72228;51.208;10.468;2023-10-13T12:21:25;12.82;;;3.63;;
82560;SDS011;72228;51.208;10.468;2023-10-13T12:25:12;13.73;;;4.03;;
82560;SDS011;72228;51.208;10.468;2023-10-13T12:29:10;9.23;;;4.65;;
82560;SDS011;72228;51.208;10.468;2023-10-13T12:37:33;12.35;;;4.75;;
82560;SDS011;72228;51.208;10.468;2023-10-13T12:46:48;8.07;;;4.10;;
82560;SDS011;72228;51.208;10.468;2023-10-13T12:50:48;11.93;;;4.20;;
82560;SDS011;72228;51.208;10.468;2023-10-13T12:54:07;10.43;;;4.00;;
82560;SDS011;72228;51.208;10.468;2023-10-13T12:57:28;8.02;;;3.92;;
82560;SDS011;72228;51.208;10.468;2023-10-13T13:01:00;8.65;;;4.07;;
82560;SDS011;72228;51.208;10.468;2023-10-13T13:08:31;7.53;;;4.60;;
82560;SDS011;72228;51.208;10.468;2023-10-13T13:12:30;9.75;;;4.18;;
82560;SDS011;72228;51.208;10.468;2023-10-13T13:15:18;9.13;;;4.82;;
82560;SDS011;72228;51.208;10.468;2023-10-13T13:19:10;15.02;;;5.03;;
82560;SDS011;72228;51.208;10.468;2023-10-13T13:22:40;12.18;;;5.35;;
82560;SDS011;72228;51.208;10.468;2023-10-13T13:25:45;8.15;;;5.03;;
82560;SDS011;72228;51.208;10.468;2023-10-13T13:33:13;8.73;;;4.70;;
82560;SDS011;72228;51.208;10.468;2023-10-13T13:37:11;12.20;;;4.22;;
82560;SDS011;72228;51.208;10.468;2023-10-13T13:49:10;7.70;;;4.25;;
82560;SDS011;72228;51.208;10.468;2023-10-13T13:52:20;15.10;;;5.03;;
82560;SDS011;72228;51.208;10.468;2023-10-13T13:55:27;8.00;;;4.47;;
82560;SDS011;72228;51.208;10.468;2023-10-13T13:59:06;9.48;;;4.80;;
82560;SDS011;72228;51.208;10.468;2023-10-13T14:02:31;9.02;;;5.15;;
82560;SDS011;72228;51.208;10.468;2023-10-13T14:06:13;11.98;;;4.60;;
82560;SDS011;72228;51.208;10.468;2023-10-13T14:09:25;10.93;;;4.35;;
82560;SDS011;72228;51.208;10.468;2023-10-13T14:12:22;9.20;;;4.55;;
82560;SDS011;72228;51.208;10.468;2023-10-13T14:15:16;7.88;;;5.75;;
82560;SDS011;72228;51.208;10.468;2023-10-13T14:18:50;8.63;;;4.35;;
82560;SDS011;72228;51.208;10.468;2023-10-13T14:22:16;7.13;;;4.25;;
82560;SDS011;72228;51.208;10.468;2023-10-13T14:26:03;11.02;;;4.63;;
82560;SDS011;72228;51.208;10.468;2023-10-13T14:28:56;8.65;;;4.32;;
82560;SDS011;72228;51.208;10.468;2023-10-13T14:31:47;9.32;;;5.07;;
82560;SDS011;72228;51.208;10.468;2023-10-13T14:34:42;8.90;;;4.43;;
82560;SDS011;72228;51.208;10.468;2023-10-13T14:38:30;10.10;;;4.35;;
82560;SDS011;72228;51.208;10.468;2023-10-13T14:41:39;7.10;;;4.50;;
82560;SDS011;72228;51.208;10.468;2023-10-13T14:45:10;8.52;;;4.70;;
82560;SDS011;72228;51.208;10.468;2023-10-13T14:48:02;10.73;;;4.45;;
82560;SDS011;72228;51.208;10.468;2023-10-13T14:50:57;6.97;;;4.05;;
82560;SDS011;72228;51.208;10.468;2023-10-13T14:53:55;9.80;;;4.55;;
82560;SDS011;72228;51.208;10.468;2023-10-13T14:56:38;7.47;;;4.15;;
82560;SDS011;72228;51.208;10.468;2023-10-13T14:59:46;11.55;;;4.75;;
82560;SDS011;72228;51.208;10.468;2023-10-13T15:02:26;12.18;;;4.70;;
82560;SDS011;72228;51.208;10.468;2023-10-13T15:05:46;12.57;;;4.80;;
82560;SDS011;72228;51.208;10.468;2023-10-13T15:08:30;7.20;;;4.63;;
82560;SDS011;72228;51.208;10.468;2023-10-13T15:11:16;7.53;;;4.15;;
82560;SDS011;72228;51.208;10.468;2023-10-13T15:14:34;9.60;;;4.57;;
82560;SDS011;72228;51.208;10.468;2023-10-13T15:17:21;7.43;;;4.18;;
82560;SDS011;72228;51.208;10.468;2023-10-13T15:19:50;7.28;;;4.05;;
82560;SDS011;72228;51.208;10.468;2023-10-13T15:22:18;9.98;;;4.68;;
82560;SDS011;72228;51.208;10.468;2023-10-13T15:24:51;10.25;;;4.75;;
82560;SDS011;72228;51.208;10.468;2023-10-13T15:27:37;11.07;;;4.63;;
82560;SDS011;72228;51.208;10.468;2023-10-13T15:30:24;7.03;;;4.45;;
82560;SDS011;72228;51.208;10.468;2023-10-13T15:37:13;9.98;;;4.65;;
82560;SDS011;72228;51.208;10.468;2023-10-13T15:42:07;12.45;;;4.60;;
82560;SDS011;72228;51.208;10.468;2023-10-13T15:47:00;9.77;;;4.32;;
82560;SDS011;72228;51.208;10.468;2023-10-13T15:49:27;7.00;;;4.15;;
82560;SDS011;72228;51.208;10.468;2023-10-13T15:51:55;10.55;;;4.47;;
82560;SDS011;72228;51.208;10.468;2023-10-13T15:54:23;7.85;;;4.75;;
82560;SDS011;72228;51.208;10.468;2023-10-13T15:56:51;7.47;;;3.97;;
82560;SDS011;72228;51.208;10.468;2023-10-13T15:59:36;10.95;;;4.15;;
82560;SDS011;72228;51.208;10.468;2023-10-13T16:02:02;11.02;;;4.68;;
82560;SDS011;72228;51.208;10.468;2023-10-13T16:04:33;10.45;;;4.85;;
82560;SDS011;72228;51.208;10.468;2023-10-13T16:06:59;9.27;;;4.03;;
82560;SDS011;72228;51.208;10.468;2023-10-13T16:09:25;8.73;;;4.32;;
82560;SDS011;72228;51.208;10.468;2023-10-13T16:11:53;7.95;;;4.22;;
82560;SDS011;72228;51.208;10.468;2023-10-13T16:14:19;10.10;;;3.85;;
82560;SDS011;72228;51.208;10.468;2023-10-13T16:16:47;9.75;;;4.18;;
82560;SDS011;72228;51.208;10.468;2023-10-13T16:21:45;8.90;;;4.20;;
82560;SDS011;72228;51.208;10.468;2023-10-13T16:24:12;6.68;;;4.32;;
82560;SDS011;72228;51.208;10.468;2023-10-13T16:26:44;6.85;;;4.07;;
82560;SDS011;72228;51.208;10.468;2023-10-13T16:31:36;10.13;;;4.10;;
82560;SDS011;72228;51.208;10.468;2023-10-13T16:34:02;8.60;;;3.85;;
82560;SDS011;72228;51.208;10.468;2023-10-13T16:36:31;8.75;;;3.85;;
82560;SDS011;72228;51.208;10.468;2023-10-13T16:38:57;10.30;;;4.43;;
82560;SDS011;72228;51.208;10.468;2023-10-13T16:41:24;8.15;;;4.45;;
82560;SDS011;72228;51.208;10.468;2023-10-13T16:43:52;10.93;;;4.38;;
82560;SDS011;72228;51.208;10.468;2023-10-13T16:46:19;9.05;;;4.40;;
82560;SDS011;72228;51.208;10.468;2023-10-13T16:48:45;10.77;;;4.03;;
82560;SDS011;72228;51.208;10.468;2023-10-13T16:51:14;7.00;;;4.15;;
82560;SDS011;72228;51.208;10.468;2023-10-13T16:53:41;7.85;;;3.97;;
82560;SDS011;72228;51.208;10.468;2023-10-13T16:56:23;6.95;;;4.45;;
82560;SDS011;72228;51.208;10.468;2023-10-13T16:58:49;9.45;;;4.00;;
82560;SDS011;72228;51.208;10.468;2023-10-13T17:01:15;8.52;;;4.60;;
82560;SDS011;72228;51.208;10.468;2023-10-13T17:03:43;12.05;;;4.95;;
82560;SDS011;72228;51.208;10.468;2023-10-13T17:08:38;7.82;;;4.18;;
82560;SDS011;72228;51.208;10.468;2023-10-13T17:13:37;8.68;;;4.43;;
82560;SDS011;72228;51.208;10.468;2023-10-13T17:16:20;11.35;;;5.15;;
82560;SDS011;72228;51.208;10.468;2023-10-13T17:18:48;8.73;;;4.10;;
82560;SDS011;72228;51.208;10.468;2023-10-13T17:24:00;8.20;;;3.90;;
82560;SDS011;72228;51.208;10.468;2023-10-13T17:26:27;8.93;;;4.72;;
82560;SDS011;72228;51.208;10.468;2023-10-13T17:28:55;10.93;;;5.20;;
82560;SDS011;72228;51.208;10.468;2023-10-13T17:31:24;9.55;;;4.70;;
82560;SDS011;72228;51.208;10.468;2023-10-13T17:33:54;7.22;;;4.50;;
82560;SDS011;72228;51.208;10.468;2023-10-13T17:36:23;6.40;;;4.20;;
82560;SDS011;72228;51.208;10.468;2023-10-13T17:38:52;8.80;;;4.72;;
82560;SDS011;72228;51.208;10.468;2023-10-13T17:41:19;15.05;;;5.10;;
82560;SDS011;72228;51.208;10.468;2023-10-13T17:43:46;15.45;;;6.45;;
82560;SDS011;72228;51.208;10.468;2023-10-13T17:46:12;14.70;;;6.90;;
82560;SDS011;72228;51.208;10.468;2023-10-13T17:48:40;11.57;;;5.95;;
82560;SDS011;72228;51.208;10.468;2023-10-13T17:51:07;17.52;;;5.55;;
82560;SDS011;72228;51.208;10.468;2023-10-13T17:53:34;14.13;;;7.18;;
82560;SDS011;72228;51.208;10.468;2023-10-13T17:56:02;10.77;;;6.35;;
82560;SDS011;72228;51.208;10.468;2023-10-13T17:58:31;11.07;;;5.30;;
82560;SDS011;72228;51.208;10.468;2023-10-13T18:00:57;12.45;;;6.30;;
82560;SDS011;72228;51.208;10.468;2023-10-13T18:03:23;18.65;;;5.68;;
82560;SDS011;72228;51.208;10.468;2023-10-13T18:05:57;13.38;;;7.47;;
82560;SDS011;72228;51.208;10.468;2023-10-13T18:08:24;11.73;;;5.57;;
82560;SDS011;72228;51.208;10.468;2023-10-13T18:10:53;11.02;;;5.85;;
82560;SDS011;72228;51.208;10.468;2023-10-13T18:13:21;12.60;;;6.15;;
82560;SDS011;72228;51.208;10.468;2023-10-13T18:15:47;8.73;;;5.18;;
82560;SDS011;72228;51.208;10.468;2023-10-13T18:18:14;13.98;;;6.03;;